Terminal Aerodrome Forecast
Issued by NWS

Home | Current Version | Previous Version | Text Only | Print | Product List | Glossary On
Versions: 1 2 3 4 5 6 7 8 9 10 11 12 13 14 15 16 17 18 19 20 21 22 23 24 25 26 27 28
711
FTUS41 KCAR 090729 AAA
TAFFVE
TAF AMD
KFVE 090729Z 0907/1006 03007KT P6SM OVC060
     FM090830 02007KT 1 1/2SM -SN OVC040
     FM090930 01009KT 3/4SM -SN OVC020
     FM092000 04009KT 1 1/2SM -SN OVC015
     FM100000 05005KT 5SM -SHSN OVC010
     FM100300 02004KT 5SM -SHSN BR OVC008=

USA.gov is the U.S. government's official web portal to all federal, state and local government web resources and services.